Time,TemperatureF,DewpointF,PressureIn,WindDirection,WindDirectionDegrees,WindSpeedMPH,WindSpeedGustMPH,Humidity,HourlyPrecipIn,Conditions,Clouds,dailyrainin,SoftwareType,DateUTC
2013-06-02 00:01:00,66.0,44.0,-100.00,SSE,150,0.0,1.0,45,-99.99,,,-99.99,,2013-06-02 07:01:00,
2013-06-02 00:11:00,66.0,43.0,-100.00,SSE,158,0.0,1.0,44,-99.99,,,-99.99,,2013-06-02 07:11:00,
2013-06-02 00:21:00,66.0,43.0,-100.00,NE,56,0.0,1.0,44,-99.99,,,-99.99,,2013-06-02 07:21:00,
2013-06-02 00:31:00,66.0,43.0,-100.00,East,90,0.0,1.0,44,-99.99,,,-99.99,,2013-06-02 07:31:00,
2013-06-02 00:42:00,65.0,44.0,-100.00,SSW,201,0.0,1.0,47,-99.99,,,-99.99,,2013-06-02 07:42:00,
2013-06-02 00:52:00,65.0,45.0,-100.00,SSE,157,0.0,2.0,49,-99.99,,,-99.99,,2013-06-02 07:52:00,
2013-06-02 01:01:00,66.0,45.0,-100.00,SSE,161,0.0,2.0,47,-99.99,,,-99.99,,2013-06-02 08:01:00,
2013-06-02 01:11:00,66.0,45.0,-100.00,SSE,165,0.0,2.0,46,-99.99,,,-99.99,,2013-06-02 08:11:00,
2013-06-02 01:21:00,65.0,43.0,-100.00,SSE,161,1.0,2.0,44,-99.99,,,-99.99,,2013-06-02 08:21:00,
2013-06-02 01:31:00,65.0,41.0,-100.00,SSE,168,0.0,2.0,41,-99.99,,,-99.99,,2013-06-02 08:31:00,
2013-06-02 01:41:00,64.0,40.0,-100.00,South,169,0.0,1.0,41,-99.99,,,-99.99,,2013-06-02 08:41:00,
2013-06-02 01:51:00,64.0,39.0,-100.00,South,169,0.0,1.0,40,-99.99,,,-99.99,,2013-06-02 08:51:00,
2013-06-02 02:01:00,64.0,39.0,-100.00,South,169,0.0,1.0,39,-99.99,,,-99.99,,2013-06-02 09:01:00,
2013-06-02 02:11:00,64.0,37.0,-100.00,SSE,159,0.0,1.0,37,-99.99,,,-99.99,,2013-06-02 09:11:00,
2013-06-02 02:21:00,63.0,37.0,-100.00,SSE,158,0.0,1.0,38,-99.99,,,-99.99,,2013-06-02 09:21:00,
2013-06-02 02:32:00,63.0,37.0,-100.00,SSE,152,0.0,1.0,38,-99.99,,,-99.99,,2013-06-02 09:32:00,
2013-06-02 02:42:00,63.0,35.0,-100.00,West,281,0.0,1.0,35,-99.99,,,-99.99,,2013-06-02 09:42:00,
2013-06-02 02:53:00,61.0,34.0,-100.00,ESE,112,0.0,1.0,36,-99.99,,,-99.99,,2013-06-02 09:53:00,
2013-06-02 03:02:00,62.0,33.0,-100.00,North,-999,0.0,0.0,33,-99.99,,,-99.99,,2013-06-02 10:02:00,
2013-06-02 03:12:00,63.0,33.0,-100.00,SSE,166,0.0,1.0,32,-99.99,,,-99.99,,2013-06-02 10:12:00,
2013-06-02 03:22:00,64.0,33.0,-100.00,SSE,166,0.0,1.0,31,-99.99,,,-99.99,,2013-06-02 10:22:00,
2013-06-02 03:32:00,63.0,33.0,-100.00,SSE,154,0.0,1.0,32,-99.99,,,-99.99,,2013-06-02 10:32:00,
2013-06-02 03:41:00,62.0,33.0,-100.00,ESE,107,0.0,1.0,33,-99.99,,,-99.99,,2013-06-02 10:41:00,
2013-06-02 03:52:00,63.0,32.0,-100.00,East,80,0.0,2.0,31,-99.99,,,-99.99,,2013-06-02 10:52:00,
2013-06-02 04:02:00,67.0,32.0,-100.00,ESE,112,3.0,5.0,27,-99.99,,,-99.99,,2013-06-02 11:02:00,
2013-06-02 04:11:00,68.0,31.0,-100.00,ESE,117,4.0,5.0,25,-99.99,,,-99.99,,2013-06-02 11:11:00,
2013-06-02 04:21:00,68.0,31.0,-100.00,SE,125,3.0,5.0,25,-99.99,,,-99.99,,2013-06-02 11:21:00,
2013-06-02 04:32:00,67.0,31.0,-100.00,SE,134,1.0,4.0,26,-99.99,,,-99.99,,2013-06-02 11:32:00,
2013-06-02 04:42:00,63.0,31.0,-100.00,West,271,0.0,1.0,30,-99.99,,,-99.99,,2013-06-02 11:42:00,
2013-06-02 04:52:00,61.0,30.0,-100.00,North,-999,0.0,0.0,31,-99.99,,,-99.99,,2013-06-02 11:52:00,
2013-06-02 05:01:00,61.0,30.0,-100.00,SSE,159,0.0,1.0,31,-99.99,,,-99.99,,2013-06-02 12:01:00,
2013-06-02 05:11:00,61.0,29.0,-100.00,North,-999,0.0,0.0,30,-99.99,,,-99.99,,2013-06-02 12:11:00,
2013-06-02 05:21:00,61.0,30.0,-100.00,SSE,158,0.0,1.0,31,-99.99,,,-99.99,,2013-06-02 12:21:00,
2013-06-02 05:31:00,61.0,29.0,-100.00,ESE,120,0.0,1.0,30,-99.99,,,-99.99,,2013-06-02 12:31:00,
2013-06-02 05:41:00,61.0,29.0,-100.00,SSE,166,0.0,1.0,30,-99.99,,,-99.99,,2013-06-02 12:41:00,
2013-06-02 05:52:00,61.0,29.0,-100.00,North,-999,0.0,0.0,29,-99.99,,,-99.99,,2013-06-02 12:52:00,
2013-06-02 06:01:00,62.0,29.0,-100.00,South,172,0.0,1.0,29,-99.99,,,-99.99,,2013-06-02 13:01:00,
2013-06-02 06:11:00,62.0,29.0,-100.00,SSE,167,0.0,2.0,29,-99.99,,,-99.99,,2013-06-02 13:11:00,
2013-06-02 06:21:00,64.0,29.0,-100.00,SSE,152,0.0,1.0,27,-99.99,,,-99.99,,2013-06-02 13:21:00,
2013-06-02 06:32:00,66.0,30.0,-100.00,SE,146,0.0,1.0,26,-99.99,,,-99.99,,2013-06-02 13:32:00,
2013-06-02 06:41:00,68.0,32.0,-100.00,ESE,102,0.0,1.0,26,-99.99,,,-99.99,,2013-06-02 13:41:00,
2013-06-02 06:52:00,68.0,34.0,-100.00,ESE,113,2.0,3.0,28,-99.99,,,-99.99,,2013-06-02 13:52:00,
2013-06-02 07:01:00,69.0,36.0,-100.00,ESE,112,2.0,3.0,30,-99.99,,,-99.99,,2013-06-02 14:01:00,
2013-06-02 07:11:00,71.0,39.0,-100.00,ESE,106,1.0,2.0,31,-99.99,,,-99.99,,2013-06-02 14:11:00,
2013-06-02 07:21:00,73.0,42.0,-100.00,East,88,0.0,1.0,33,-99.99,,,-99.99,,2013-06-02 14:21:00,
2013-06-02 07:32:00,76.0,41.0,-100.00,East,87,0.0,1.0,29,-99.99,,,-99.99,,2013-06-02 14:32:00,
2013-06-02 07:41:00,79.0,38.0,-100.00,NE,52,0.0,1.0,23,-99.99,,,-99.99,,2013-06-02 14:41:00,
2013-06-02 07:51:00,80.0,35.0,-100.00,NNE,22,1.0,1.0,20,-99.99,,,-99.99,,2013-06-02 14:51:00,
2013-06-02 08:01:00,80.0,35.0,-100.00,NW,319,1.0,3.0,20,-99.99,,,-99.99,,2013-06-02 15:01:00,
2013-06-02 08:11:00,78.0,35.0,-100.00,NW,305,3.0,4.0,21,-99.99,,,-99.99,,2013-06-02 15:11:00,
2013-06-02 08:21:00,78.0,31.0,-100.00,NW,306,3.0,5.0,18,-99.99,,,-99.99,,2013-06-02 15:21:00,
2013-06-02 08:32:00,79.0,30.0,-100.00,WNW,283,3.0,5.0,17,-99.99,,,-99.99,,2013-06-02 15:32:00,
2013-06-02 08:42:00,79.0,30.0,-100.00,West,276,3.0,6.0,17,-99.99,,,-99.99,,2013-06-02 15:42:00,
2013-06-02 08:53:00,80.0,31.0,-100.00,West,277,4.0,8.0,17,-99.99,,,-99.99,,2013-06-02 15:53:00,
2013-06-02 09:03:00,80.0,30.0,-100.00,West,263,5.0,9.0,16,-99.99,,,-99.99,,2013-06-02 16:03:00,
2013-06-02 09:13:00,81.0,31.0,-100.00,West,267,5.0,10.0,16,-99.99,,,-99.99,,2013-06-02 16:13:00,
2013-06-02 09:22:00,81.0,29.0,-100.00,West,266,5.0,10.0,15,-99.99,,,-99.99,,2013-06-02 16:22:00,
2013-06-02 09:32:00,82.0,30.0,-100.00,West,270,5.0,9.0,15,-99.99,,,-99.99,,2013-06-02 16:32:00,
2013-06-02 09:42:00,82.0,30.0,-100.00,West,270,5.0,9.0,15,-99.99,,,-99.99,,2013-06-02 16:42:00,
2013-06-02 09:52:00,82.0,30.0,-100.00,WNW,282,6.0,11.0,15,-99.99,,,-99.99,,2013-06-02 16:52:00,
2013-06-02 10:02:00,82.0,30.0,-100.00,West,268,7.0,12.0,15,-99.99,,,-99.99,,2013-06-02 17:02:00,
2013-06-02 10:12:00,83.0,31.0,-100.00,West,271,5.0,11.0,15,-99.99,,,-99.99,,2013-06-02 17:12:00,
2013-06-02 10:22:00,83.0,31.0,-100.00,WNW,283,6.0,12.0,15,-99.99,,,-99.99,,2013-06-02 17:22:00,
2013-06-02 10:32:00,83.0,31.0,-100.00,West,279,7.0,14.0,15,-99.99,,,-99.99,,2013-06-02 17:32:00,
2013-06-02 10:42:00,85.0,30.0,-100.00,West,272,6.0,12.0,14,-99.99,,,-99.99,,2013-06-02 17:42:00,
2013-06-02 10:51:00,85.0,29.0,-100.00,West,259,7.0,14.0,13,-99.99,,,-99.99,,2013-06-02 17:51:00,
2013-06-02 11:01:00,86.0,27.0,-100.00,SW,236,5.0,12.0,12,-99.99,,,-99.99,,2013-06-02 18:01:00,
2013-06-02 11:11:00,86.0,27.0,-100.00,WSW,239,7.0,13.0,12,-99.99,,,-99.99,,2013-06-02 18:11:00,
2013-06-02 11:21:00,86.0,29.0,-100.00,WSW,250,8.0,19.0,13,-99.99,,,-99.99,,2013-06-02 18:21:00,
2013-06-02 11:31:00,85.0,29.0,-100.00,WSW,250,7.0,15.0,13,-99.99,,,-99.99,,2013-06-02 18:31:00,
2013-06-02 11:42:00,85.0,30.0,-100.00,WSW,255,7.0,16.0,14,-99.99,,,-99.99,,2013-06-02 18:42:00,
2013-06-02 11:52:00,85.0,30.0,-100.00,WSW,252,7.0,14.0,14,-99.99,,,-99.99,,2013-06-02 18:52:00,
2013-06-02 12:01:00,85.0,34.0,-100.00,WSW,256,8.0,16.0,16,-99.99,,,-99.99,,2013-06-02 19:01:00,
2013-06-02 12:11:00,85.0,34.0,-100.00,West,261,8.0,15.0,16,-99.99,,,-99.99,,2013-06-02 19:11:00,
2013-06-02 12:21:00,85.0,34.0,-100.00,WSW,249,7.0,15.0,16,-99.99,,,-99.99,,2013-06-02 19:21:00,
2013-06-02 12:31:00,85.0,34.0,-100.00,WSW,237,9.0,16.0,16,-99.99,,,-99.99,,2013-06-02 19:31:00,
2013-06-02 12:41:00,85.0,37.0,-100.00,WSW,243,8.0,15.0,18,-99.99,,,-99.99,,2013-06-02 19:41:00,
2013-06-02 12:52:00,85.0,37.0,-100.00,WSW,255,8.0,18.0,18,-99.99,,,-99.99,,2013-06-02 19:52:00,
2013-06-02 13:02:00,84.0,36.0,-100.00,West,265,9.0,19.0,18,-99.99,,,-99.99,,2013-06-02 20:02:00,
2013-06-02 13:11:00,83.0,35.0,-100.00,WSW,256,9.0,18.0,18,-99.99,,,-99.99,,2013-06-02 20:11:00,
2013-06-02 13:21:00,83.0,35.0,-100.00,West,274,8.0,16.0,18,-99.99,,,-99.99,,2013-06-02 20:21:00,
2013-06-02 13:31:00,83.0,35.0,-100.00,West,265,9.0,20.0,18,-99.99,,,-99.99,,2013-06-02 20:31:00,
2013-06-02 13:42:00,83.0,35.0,-100.00,West,264,8.0,15.0,18,-99.99,,,-99.99,,2013-06-02 20:42:00,
2013-06-02 13:51:00,84.0,36.0,-100.00,WSW,253,9.0,18.0,18,-99.99,,,-99.99,,2013-06-02 20:51:00,
2013-06-02 14:01:00,84.0,37.0,-100.00,WSW,256,8.0,20.0,19,-99.99,,,-99.99,,2013-06-02 21:01:00,
2013-06-02 14:11:00,84.0,37.0,-100.00,West,263,8.0,17.0,19,-99.99,,,-99.99,,2013-06-02 21:11:00,
2013-06-02 14:21:00,84.0,39.0,-100.00,West,259,8.0,16.0,20,-99.99,,,-99.99,,2013-06-02 21:21:00,
2013-06-02 14:33:00,84.0,39.0,-100.00,West,275,9.0,17.0,20,-99.99,,,-99.99,,2013-06-02 21:33:00,
2013-06-02 14:42:00,84.0,40.0,-100.00,West,271,9.0,17.0,21,-99.99,,,-99.99,,2013-06-02 21:42:00,
2013-06-02 14:53:00,84.0,41.0,-100.00,WSW,253,8.0,15.0,22,-99.99,,,-99.99,,2013-06-02 21:53:00,
2013-06-02 15:03:00,85.0,42.0,-100.00,West,263,9.0,16.0,22,-99.99,,,-99.99,,2013-06-02 22:03:00,
2013-06-02 15:12:00,85.0,41.0,-100.00,WSW,246,9.0,16.0,21,-99.99,,,-99.99,,2013-06-02 22:12:00,
2013-06-02 15:22:00,84.0,41.0,-100.00,WSW,252,9.0,16.0,22,-99.99,,,-99.99,,2013-06-02 22:22:00,
2013-06-02 15:33:00,84.0,41.0,-100.00,WSW,242,8.0,14.0,22,-99.99,,,-99.99,,2013-06-02 22:33:00,
2013-06-02 15:42:00,84.0,41.0,-100.00,WSW,249,9.0,16.0,22,-99.99,,,-99.99,,2013-06-02 22:42:00,
2013-06-02 15:52:00,83.0,41.0,-100.00,West,262,9.0,16.0,23,-99.99,,,-99.99,,2013-06-02 22:52:00,
2013-06-02 16:02:00,83.0,42.0,-100.00,West,267,9.0,15.0,24,-99.99,,,-99.99,,2013-06-02 23:02:00,
2013-06-02 16:12:00,83.0,42.0,-100.00,West,270,8.0,17.0,24,-99.99,,,-99.99,,2013-06-02 23:12:00,
2013-06-02 16:22:00,82.0,43.0,-100.00,West,267,10.0,19.0,25,-99.99,,,-99.99,,2013-06-02 23:22:00,
2013-06-02 16:32:00,82.0,43.0,-100.00,West,260,9.0,17.0,25,-99.99,,,-99.99,,2013-06-02 23:32:00,
2013-06-02 16:42:00,82.0,43.0,-100.00,West,272,10.0,16.0,25,-99.99,,,-99.99,,2013-06-02 23:42:00,
2013-06-02 16:52:00,82.0,43.0,-100.00,West,268,9.0,17.0,25,-99.99,,,-99.99,,2013-06-02 23:52:00,
2013-06-02 17:01:00,82.0,42.0,-100.00,West,279,8.0,15.0,24,-99.99,,,-99.99,,2013-06-03 00:01:00,
2013-06-02 17:11:00,81.0,42.0,-100.00,West,276,10.0,18.0,25,-99.99,,,-99.99,,2013-06-03 00:11:00,
2013-06-02 17:21:00,81.0,42.0,-100.00,West,272,9.0,17.0,25,-99.99,,,-99.99,,2013-06-03 00:21:00,
2013-06-02 17:32:00,81.0,42.0,-100.00,West,272,9.0,17.0,25,-99.99,,,-99.99,,2013-06-03 00:32:00,
2013-06-02 17:42:00,81.0,39.0,-100.00,WSW,257,9.0,16.0,22,-99.99,,,-99.99,,2013-06-03 00:42:00,
2013-06-02 17:51:00,81.0,41.0,-100.00,West,264,9.0,17.0,24,-99.99,,,-99.99,,2013-06-03 00:51:00,
2013-06-02 18:01:00,81.0,39.0,-100.00,WSW,245,9.0,15.0,22,-99.99,,,-99.99,,2013-06-03 01:01:00,
2013-06-02 18:11:00,80.0,40.0,-100.00,WSW,253,8.0,15.0,24,-99.99,,,-99.99,,2013-06-03 01:11:00,
2013-06-02 18:21:00,80.0,42.0,-100.00,WSW,253,8.0,14.0,26,-99.99,,,-99.99,,2013-06-03 01:21:00,
2013-06-02 18:32:00,78.0,42.0,-100.00,WSW,256,9.0,16.0,28,-99.99,,,-99.99,,2013-06-03 01:32:00,
2013-06-02 18:42:00,78.0,42.0,-100.00,WSW,257,7.0,14.0,28,-99.99,,,-99.99,,2013-06-03 01:42:00,
2013-06-02 18:52:00,78.0,43.0,-100.00,West,261,7.0,15.0,29,-99.99,,,-99.99,,2013-06-03 01:52:00,
2013-06-02 19:02:00,77.0,43.0,-100.00,West,259,7.0,14.0,30,-99.99,,,-99.99,,2013-06-03 02:02:00,
2013-06-02 19:12:00,77.0,43.0,-100.00,WSW,243,9.0,14.0,30,-99.99,,,-99.99,,2013-06-03 02:12:00,
2013-06-02 19:22:00,76.0,43.0,-100.00,WSW,243,9.0,14.0,31,-99.99,,,-99.99,,2013-06-03 02:22:00,
2013-06-02 19:32:00,75.0,44.0,-100.00,WSW,255,8.0,14.0,33,-99.99,,,-99.99,,2013-06-03 02:32:00,
2013-06-02 19:42:00,75.0,44.0,-100.00,WSW,244,7.0,12.0,33,-99.99,,,-99.99,,2013-06-03 02:42:00,
2013-06-02 19:52:00,74.0,45.0,-100.00,WSW,256,6.0,11.0,35,-99.99,,,-99.99,,2013-06-03 02:52:00,
2013-06-02 20:02:00,72.0,45.0,-100.00,WSW,255,5.0,9.0,38,-99.99,,,-99.99,,2013-06-03 03:02:00,
2013-06-02 20:12:00,71.0,45.0,-100.00,WSW,247,5.0,8.0,40,-99.99,,,-99.99,,2013-06-03 03:12:00,
2013-06-02 20:21:00,70.0,43.0,-100.00,SW,229,5.0,8.0,38,-99.99,,,-99.99,,2013-06-03 03:21:00,
2013-06-02 20:33:00,68.0,43.0,-100.00,SW,235,4.0,6.0,40,-99.99,,,-99.99,,2013-06-03 03:33:00,
2013-06-02 20:43:00,67.0,44.0,-100.00,WSW,238,4.0,6.0,43,-99.99,,,-99.99,,2013-06-03 03:43:00,
2013-06-02 20:53:00,66.0,46.0,-100.00,SW,232,5.0,6.0,48,-99.99,,,-99.99,,2013-06-03 03:53:00,
2013-06-02 21:02:00,65.0,48.0,-100.00,SW,233,4.0,6.0,54,-99.99,,,-99.99,,2013-06-03 04:02:00,
2013-06-02 21:12:00,65.0,49.0,-100.00,SSW,194,1.0,3.0,56,-99.99,,,-99.99,,2013-06-03 04:12:00,
2013-06-02 21:23:00,64.0,49.0,-100.00,West,268,1.0,3.0,58,-99.99,,,-99.99,,2013-06-03 04:23:00,
2013-06-02 21:33:00,64.0,50.0,-100.00,SW,235,2.0,3.0,60,-99.99,,,-99.99,,2013-06-03 04:33:00,
2013-06-02 21:42:00,63.0,50.0,-100.00,SW,229,1.0,2.0,62,-99.99,,,-99.99,,2013-06-03 04:42:00,
2013-06-02 21:52:00,62.0,49.0,-100.00,North,-999,0.0,0.0,63,-99.99,,,-99.99,,2013-06-03 04:52:00,
2013-06-02 22:02:00,61.0,50.0,-100.00,North,-999,0.0,0.0,66,-99.99,,,-99.99,,2013-06-03 05:02:00,
2013-06-02 22:12:00,62.0,50.0,-100.00,SSE,151,1.0,2.0,65,-99.99,,,-99.99,,2013-06-03 05:12:00,
2013-06-02 22:22:00,61.0,50.0,-100.00,South,191,0.0,1.0,67,-99.99,,,-99.99,,2013-06-03 05:22:00,
2013-06-02 22:32:00,61.0,50.0,-100.00,SSW,211,1.0,3.0,66,-99.99,,,-99.99,,2013-06-03 05:32:00,
2013-06-02 22:42:00,62.0,48.0,-100.00,SSW,209,3.0,4.0,60,-99.99,,,-99.99,,2013-06-03 05:42:00,
2013-06-02 22:52:00,61.0,47.0,-100.00,SW,217,2.0,3.0,60,-99.99,,,-99.99,,2013-06-03 05:52:00,
2013-06-02 23:02:00,60.0,47.0,-100.00,SSW,213,0.0,1.0,61,-99.99,,,-99.99,,2013-06-03 06:02:00,
2013-06-02 23:12:00,59.0,46.0,-100.00,North,-999,0.0,0.0,62,-99.99,,,-99.99,,2013-06-03 06:12:00,
2013-06-02 23:21:00,59.0,45.0,-100.00,SSW,211,0.0,2.0,60,-99.99,,,-99.99,,2013-06-03 06:21:00,
2013-06-02 23:32:00,60.0,43.0,-100.00,SSW,206,1.0,3.0,53,-99.99,,,-99.99,,2013-06-03 06:32:00,
2013-06-02 23:42:00,61.0,41.0,-100.00,SSW,211,1.0,3.0,48,-99.99,,,-99.99,,2013-06-03 06:42:00,
2013-06-02 23:52:00,61.0,40.0,-100.00,SSW,204,1.0,2.0,46,-99.99,,,-99.99,,2013-06-03 06:52:00,